Time;durP1;ratioP1;P1;durP2;ratioP2;P2;SDS_P1;SDS_P2;PMS_P1;PMS_P2;Temp;Humidity;BMP_temperature;BMP_pressure;BME280_temperature;BME280_humidity;BME280_pressure;Samples;Min_cycle;Max_cycle;Signal;HPM_P1;HPM_P2
2021/01/08 00:01:43;;;;;;;37.67;21.50;;;;;;;;;;5056970;28;20087;-84
2021/01/08 00:04:09;;;;;;;80.70;34.42;;;;;;;;;;5058120;28;20403;-84
2021/01/08 00:06:35;;;;;;;52.78;26.95;;;;;;;;;;5058402;28;20021;-84
2021/01/08 00:09:01;;;;;;;40.20;23.02;;;;;;;;;;5056817;28;20041;-84
2021/01/08 00:11:27;;;;;;;37.95;22.73;;;;;;;;;;5057821;28;20099;-84
2021/01/08 00:13:54;;;;;;;39.03;22.05;;;;;;;;;;5058400;28;20029;-85
2021/01/08 00:16:20;;;;;;;38.05;21.60;;;;;;;;;;5058100;28;20036;-85
2021/01/08 00:18:46;;;;;;;47.00;25.33;;;;;;;;;;5058401;28;20021;-84
2021/01/08 00:21:13;;;;;;;49.42;26.02;;;;;;;;;;5057147;28;20055;-84
2021/01/08 00:26:43;;;;;;;79.03;39.30;;;;;;;;;;5057911;28;20052;-84
2021/01/08 00:29:10;;;;;;;73.57;37.63;;;;;;;;;;5057457;28;20024;-84
2021/01/08 00:31:40;;;;;;;75.50;42.25;;;;;;;;;;5057568;28;20418;-85
2021/01/08 00:34:07;;;;;;;71.90;33.30;;;;;;;;;;5057629;28;20411;-84
2021/01/08 00:39:39;;;;;;;65.30;31.27;;;;;;;;;;5057864;28;20055;-84
2021/01/08 00:42:05;;;;;;;53.47;28.08;;;;;;;;;;5057362;28;20032;-84
2021/01/08 00:44:33;;;;;;;52.63;27.85;;;;;;;;;;5056377;28;20403;-83
2021/01/08 00:46:59;;;;;;;51.78;26.55;;;;;;;;;;5057285;28;20028;-82
2021/01/08 00:49:25;;;;;;;30.98;18.40;;;;;;;;;;5056970;28;20403;-80
2021/01/08 00:51:52;;;;;;;27.80;17.70;;;;;;;;;;5057044;28;20338;-80
2021/01/08 00:54:18;;;;;;;24.48;16.92;;;;;;;;;;5056912;28;20025;-80
2021/01/08 00:56:46;;;;;;;27.92;17.83;;;;;;;;;;5056940;28;20029;-80
2021/01/08 00:59:12;;;;;;;28.20;18.17;;;;;;;;;;5056942;28;20036;-80
2021/01/08 01:01:38;;;;;;;28.70;18.40;;;;;;;;;;5056697;28;20036;-80
2021/01/08 01:04:04;;;;;;;33.85;20.83;;;;;;;;;;5057121;28;20029;-80
2021/01/08 01:06:32;;;;;;;44.92;27.00;;;;;;;;;;5055660;28;20017;-80
2021/01/08 01:08:58;;;;;;;40.92;23.58;;;;;;;;;;5056733;28;20423;-80
2021/01/08 01:11:25;;;;;;;48.65;25.15;;;;;;;;;;5060446;28;20045;-78
2021/01/08 01:13:52;;;;;;;44.67;25.10;;;;;;;;;;5060820;28;20021;-78
2021/01/08 01:16:19;;;;;;;39.58;22.27;;;;;;;;;;5061094;28;20021;-80
2021/01/08 01:18:46;;;;;;;32.10;20.15;;;;;;;;;;5060697;28;20071;-80
2021/01/08 01:21:12;;;;;;;34.47;20.45;;;;;;;;;;5059621;28;20025;-79
2021/01/08 01:23:38;;;;;;;33.35;19.80;;;;;;;;;;5060726;28;20037;-80
2021/01/08 01:26:04;;;;;;;30.88;19.95;;;;;;;;;;5060795;28;20021;-80
2021/01/08 01:28:30;;;;;;;31.25;19.02;;;;;;;;;;5059480;28;20044;-80
2021/01/08 01:30:56;;;;;;;33.22;19.77;;;;;;;;;;5060854;28;20017;-80
2021/01/08 01:33:22;;;;;;;46.28;25.15;;;;;;;;;;5060142;28;20037;-80
2021/01/08 01:35:49;;;;;;;43.17;23.30;;;;;;;;;;5060375;28;20407;-80
2021/01/08 01:38:15;;;;;;;49.25;25.08;;;;;;;;;;5059351;28;20029;-80
2021/01/08 01:40:41;;;;;;;43.53;25.13;;;;;;;;;;5060286;28;20028;-80
2021/01/08 01:43:07;;;;;;;42.15;23.25;;;;;;;;;;5060229;28;20111;-80
2021/01/08 01:45:33;;;;;;;41.05;24.17;;;;;;;;;;5059236;28;20028;-80
2021/01/08 01:47:59;;;;;;;40.13;23.52;;;;;;;;;;5060159;28;20067;-80
2021/01/08 01:50:26;;;;;;;34.13;20.75;;;;;;;;;;5059067;28;20031;-80
2021/01/08 01:55:56;;;;;;;35.53;21.80;;;;;;;;;;5060170;28;20355;-81
2021/01/08 01:58:22;;;;;;;35.90;20.27;;;;;;;;;;5060112;28;20036;-80
2021/01/08 02:00:48;;;;;;;31.00;20.45;;;;;;;;;;5060060;28;20028;-79
2021/01/08 02:03:18;;;;;;;36.45;21.98;;;;;;;;;;5059667;28;20411;-79
2021/01/08 02:05:45;;;;;;;35.15;21.35;;;;;;;;;;5060031;28;20025;-79
2021/01/08 02:08:13;;;;;;;33.30;21.27;;;;;;;;;;5059890;28;20021;-80
2021/01/08 02:10:46;;;;;;;40.75;23.95;;;;;;;;;;5059448;28;20052;-80
2021/01/08 02:13:32;;;;;;;36.88;23.83;;;;;;;;;;5058400;28;20028;-80
2021/01/08 02:15:58;;;;;;;36.00;22.65;;;;;;;;;;5056605;28;20033;-80
2021/01/08 02:18:25;;;;;;;37.70;23.95;;;;;;;;;;5056717;28;20037;-80
2021/01/08 02:20:52;;;;;;;38.10;24.75;;;;;;;;;;5056033;28;20128;-80
2021/01/08 02:23:24;;;;;;;30.73;21.13;;;;;;;;;;5056464;28;20053;-80
2021/01/08 02:25:50;;;;;;;33.00;22.00;;;;;;;;;;5056551;28;20027;-80
2021/01/08 02:28:16;;;;;;;32.30;20.40;;;;;;;;;;5056730;28;20389;-80
2021/01/08 02:30:44;;;;;;;31.58;21.13;;;;;;;;;;5056528;28;20029;-80
2021/01/08 02:33:10;;;;;;;32.65;21.38;;;;;;;;;;5056352;28;20049;-80
2021/01/08 02:35:36;;;;;;;34.67;21.65;;;;;;;;;;5039732;28;20091;-80
2021/01/08 02:38:03;;;;;;;31.15;21.48;;;;;;;;;;5056243;28;20055;-81
2021/01/08 02:40:29;;;;;;;34.15;20.75;;;;;;;;;;5056387;28;20059;-80
2021/01/08 02:43:06;;;;;;;32.38;20.85;;;;;;;;;;5056303;28;20410;-81
2021/01/08 02:45:32;;;;;;;27.95;19.40;;;;;;;;;;5039849;28;20377;-81
2021/01/08 02:47:59;;;;;;;32.90;20.98;;;;;;;;;;5056249;28;20425;-81
2021/01/08 02:50:25;;;;;;;31.38;21.77;;;;;;;;;;5056036;28;20407;-81
2021/01/08 02:52:54;;;;;;;31.08;21.70;;;;;;;;;;5056654;28;20514;-80
2021/01/08 02:55:21;;;;;;;32.95;20.85;;;;;;;;;;5057948;28;20021;-80
2021/01/08 02:57:48;;;;;;;30.45;20.70;;;;;;;;;;5057806;28;20029;-80
2021/01/08 03:00:15;;;;;;;30.33;20.45;;;;;;;;;;5056740;28;20403;-81
2021/01/08 03:02:41;;;;;;;32.63;21.10;;;;;;;;;;5057539;28;20119;-80
2021/01/08 03:05:07;;;;;;;32.10;21.50;;;;;;;;;;5057867;28;20025;-80
2021/01/08 03:07:33;;;;;;;33.00;21.17;;;;;;;;;;5057611;28;20039;-79
2021/01/08 03:10:00;;;;;;;31.50;19.95;;;;;;;;;;5057643;28;20461;-80
2021/01/08 03:12:30;;;;;;;29.80;20.48;;;;;;;;;;5023179;28;1010928;-80
2021/01/08 03:14:56;;;;;;;29.17;20.48;;;;;;;;;;5058935;28;20268;-80
2021/01/08 03:17:22;;;;;;;33.33;21.80;;;;;;;;;;5058578;28;20437;-80
2021/01/08 03:19:48;;;;;;;31.40;21.73;;;;;;;;;;5058487;28;20033;-80
2021/01/08 03:22:14;;;;;;;35.33;21.55;;;;;;;;;;5058385;28;20141;-79
2021/01/08 03:24:40;;;;;;;31.95;21.58;;;;;;;;;;5058730;28;20021;-80
2021/01/08 03:27:06;;;;;;;32.00;20.65;;;;;;;;;;5058450;28;20055;-80
2021/01/08 03:29:32;;;;;;;33.25;21.02;;;;;;;;;;5058457;28;20071;-80
2021/01/08 03:31:58;;;;;;;34.90;22.23;;;;;;;;;;5056507;28;20036;-80
2021/01/08 03:34:24;;;;;;;31.95;21.63;;;;;;;;;;5058021;28;20036;-80
2021/01/08 03:36:51;;;;;;;31.63;21.50;;;;;;;;;;5058078;28;20327;-79
2021/01/08 03:39:17;;;;;;;28.52;20.05;;;;;;;;;;5058353;28;20079;-79
2021/01/08 03:41:43;;;;;;;32.88;20.15;;;;;;;;;;5056947;28;20035;-80
2021/01/08 03:44:09;;;;;;;31.85;20.25;;;;;;;;;;5058048;28;20411;-80
2021/01/08 03:46:38;;;;;;;31.20;20.42;;;;;;;;;;5058106;28;20334;-80
2021/01/08 03:49:05;;;;;;;30.60;20.70;;;;;;;;;;5058005;28;20013;-79
2021/01/08 03:51:31;;;;;;;29.52;20.73;;;;;;;;;;5057553;28;20420;-80
2021/01/08 03:53:57;;;;;;;33.08;20.65;;;;;;;;;;5057615;28;20035;-79
2021/01/08 03:56:23;;;;;;;31.90;20.98;;;;;;;;;;5056718;28;20075;-80
2021/01/08 03:58:50;;;;;;;33.70;22.70;;;;;;;;;;5057831;28;20032;-80
2021/01/08 04:01:16;;;;;;;34.45;22.85;;;;;;;;;;5057430;28;20025;-80
2021/01/08 04:03:42;;;;;;;36.10;21.88;;;;;;;;;;5056498;28;20029;-80
2021/01/08 04:06:08;;;;;;;32.03;21.38;;;;;;;;;;5057500;28;20111;-79
2021/01/08 04:08:34;;;;;;;44.92;22.13;;;;;;;;;;5057583;28;20028;-80
2021/01/08 04:11:00;;;;;;;35.67;22.83;;;;;;;;;;5057292;28;20048;-80
2021/01/08 04:13:26;;;;;;;31.75;20.83;;;;;;;;;;5057563;28;20045;-81
2021/01/08 04:15:52;;;;;;;32.25;22.45;;;;;;;;;;5057503;28;20025;-79
2021/01/08 04:18:18;;;;;;;35.03;22.65;;;;;;;;;;5056225;28;20039;-80
2021/01/08 04:20:44;;;;;;;35.08;21.98;;;;;;;;;;5057448;28;20025;-79
2021/01/08 04:23:28;;;;;;;31.88;20.75;;;;;;;;;;5057080;28;20025;-79
2021/01/08 04:25:55;;;;;;;33.00;22.52;;;;;;;;;;5057482;28;20051;-79
2021/01/08 04:28:21;;;;;;;31.77;21.25;;;;;;;;;;5057459;28;20095;-79
2021/01/08 04:30:47;;;;;;;34.92;21.08;;;;;;;;;;5057218;28;20032;-79
2021/01/08 04:33:13;;;;;;;33.20;21.45;;;;;;;;;;5056096;28;20036;-79
2021/01/08 04:35:39;;;;;;;35.17;21.30;;;;;;;;;;5057333;28;20051;-79
2021/01/08 04:38:05;;;;;;;33.65;21.75;;;;;;;;;;5057518;28;20084;-79
2021/01/08 04:40:32;;;;;;;34.47;21.35;;;;;;;;;;5057054;28;20411;-80
2021/01/08 04:42:58;;;;;;;31.92;20.33;;;;;;;;;;5057219;28;20032;-79
2021/01/08 04:45:24;;;;;;;32.80;22.00;;;;;;;;;;5056815;28;20025;-80
2021/01/08 04:47:51;;;;;;;29.15;20.45;;;;;;;;;;5057084;28;20060;-80
2021/01/08 04:50:18;;;;;;;32.13;21.73;;;;;;;;;;5056765;28;20036;-80
2021/01/08 04:52:44;;;;;;;33.53;21.85;;;;;;;;;;5056820;28;20104;-81
2021/01/08 04:55:10;;;;;;;31.95;21.13;;;;;;;;;;5056893;28;20021;-80
2021/01/08 04:57:37;;;;;;;30.38;20.73;;;;;;;;;;5056816;28;20036;-80
2021/01/08 05:00:04;;;;;;;34.97;21.42;;;;;;;;;;5055863;28;20124;-80
2021/01/08 05:02:30;;;;;;;32.88;20.25;;;;;;;;;;5056701;28;20049;-80
2021/01/08 05:04:57;;;;;;;28.80;19.65;;;;;;;;;;5056619;28;20037;-79
2021/01/08 05:07:26;;;;;;;32.70;21.52;;;;;;;;;;5056673;28;20024;-81
2021/01/08 05:09:52;;;;;;;28.48;19.55;;;;;;;;;;5056712;28;20104;-81
2021/01/08 05:12:18;;;;;;;33.35;21.08;;;;;;;;;;5056507;28;20457;-81
2021/01/08 05:14:44;;;;;;;33.75;21.15;;;;;;;;;;5056796;28;20315;-80
2021/01/08 05:17:10;;;;;;;33.30;21.70;;;;;;;;;;5056896;28;20029;-81
2021/01/08 05:19:37;;;;;;;33.88;22.98;;;;;;;;;;5056803;28;20029;-80
2021/01/08 05:22:03;;;;;;;31.75;23.13;;;;;;;;;;5056604;28;20028;-81
2021/01/08 05:24:30;;;;;;;33.17;22.08;;;;;;;;;;5056823;28;20017;-81
2021/01/08 05:26:56;;;;;;;31.90;22.02;;;;;;;;;;5056910;28;20018;-80
2021/01/08 05:29:28;;;;;;;35.50;22.60;;;;;;;;;;5056827;28;20494;-81
2021/01/08 05:31:54;;;;;;;55.03;27.67;;;;;;;;;;5056720;28;20116;-81
2021/01/08 05:34:25;;;;;;;86.40;40.47;;;;;;;;;;5055554;28;20041;-80
2021/01/08 05:36:52;;;;;;;100.00;43.85;;;;;;;;;;5056593;28;20154;-81
2021/01/08 05:39:19;;;;;;;80.13;41.15;;;;;;;;;;5056479;28;20028;-81
2021/01/08 05:41:45;;;;;;;60.67;36.25;;;;;;;;;;5056616;28;20320;-81
2021/01/08 05:44:14;;;;;;;41.55;26.77;;;;;;;;;;5056642;28;20100;-78
2021/01/08 05:46:41;;;;;;;34.60;23.10;;;;;;;;;;5056524;28;20028;-79
2021/01/08 05:49:08;;;;;;;35.50;23.95;;;;;;;;;;5055231;28;20031;-80
2021/01/08 05:51:38;;;;;;;45.65;28.98;;;;;;;;;;5055922;28;20116;-79
2021/01/08 05:54:05;;;;;;;53.20;33.25;;;;;;;;;;5056222;28;20437;-78
2021/01/08 05:56:38;;;;;;;59.28;37.28;;;;;;;;;;5058548;28;20356;-79
2021/01/08 05:59:06;;;;;;;67.15;39.85;;;;;;;;;;5060233;28;20032;-80
2021/01/08 06:01:33;;;;;;;54.38;32.25;;;;;;;;;;5059917;28;21912;-78
2021/01/08 06:04:03;;;;;;;49.80;28.63;;;;;;;;;;5059940;28;20053;-79
2021/01/08 06:06:42;;;;;;;73.00;41.67;;;;;;;;;;5058822;28;20048;-79
2021/01/08 06:09:11;;;;;;;62.72;36.90;;;;;;;;;;5058717;28;20041;-79
2021/01/08 06:11:37;;;;;;;51.20;30.00;;;;;;;;;;5059602;28;20087;-79
2021/01/08 06:14:06;;;;;;;51.50;30.27;;;;;;;;;;5059513;28;20025;-79
2021/01/08 06:16:36;;;;;;;39.10;25.52;;;;;;;;;;5059614;28;20390;-80
2021/01/08 06:19:02;;;;;;;33.28;23.08;;;;;;;;;;5059536;28;20025;-80
2021/01/08 06:21:47;;;;;;;37.45;24.13;;;;;;;;;;5059702;28;20025;-80
2021/01/08 06:24:14;;;;;;;39.58;26.10;;;;;;;;;;5059632;28;20028;-80
2021/01/08 06:26:44;;;;;;;52.47;30.58;;;;;;;;;;5058454;28;20434;-79
2021/01/08 06:29:17;;;;;;;47.95;28.63;;;;;;;;;;5059519;28;20079;-79
2021/01/08 06:31:47;;;;;;;33.60;23.15;;;;;;;;;;5059578;28;20029;-80
2021/01/08 06:34:21;;;;;;;33.10;21.90;;;;;;;;;;5059493;28;20112;-80
2021/01/08 06:36:47;;;;;;;33.75;21.45;;;;;;;;;;5059355;28;20040;-80
2021/01/08 06:39:21;;;;;;;33.00;21.58;;;;;;;;;;5059175;28;20364;-80
2021/01/08 06:41:50;;;;;;;69.75;34.50;;;;;;;;;;5058140;28;20275;-80
2021/01/08 06:44:19;;;;;;;89.88;42.78;;;;;;;;;;5058217;28;20021;-80
2021/01/08 06:46:46;;;;;;;47.20;26.52;;;;;;;;;;5058740;28;20028;-81
2021/01/08 06:49:13;;;;;;;33.35;20.20;;;;;;;;;;5059113;28;20021;-80
2021/01/08 06:51:39;;;;;;;31.77;19.95;;;;;;;;;;5058861;28;20024;-81
2021/01/08 06:54:07;;;;;;;30.75;19.45;;;;;;;;;;5058960;28;20025;-79
2021/01/08 06:56:33;;;;;;;29.92;20.50;;;;;;;;;;5058926;28;20025;-81
2021/01/08 06:58:59;;;;;;;31.05;20.35;;;;;;;;;;5058984;28;20063;-80
2021/01/08 07:01:44;;;;;;;34.75;23.88;;;;;;;;;;5058935;28;20056;-80
2021/01/08 07:04:11;;;;;;;39.20;24.98;;;;;;;;;;5058753;28;20347;-80
2021/01/08 07:06:37;;;;;;;32.97;21.65;;;;;;;;;;5058301;28;20123;-80
2021/01/08 07:09:05;;;;;;;32.58;20.75;;;;;;;;;;5057920;28;20112;-80
2021/01/08 07:11:31;;;;;;;32.17;19.83;;;;;;;;;;5058646;28;20065;-80
2021/01/08 07:14:14;;;;;;;33.35;22.83;;;;;;;;;;5058788;28;20029;-80
2021/01/08 07:16:47;;;;;;;35.47;24.85;;;;;;;;;;5058758;28;20033;-80
2021/01/08 07:19:14;;;;;;;43.58;29.67;;;;;;;;;;5057150;28;20031;-80
2021/01/08 07:21:51;;;;;;;39.45;27.73;;;;;;;;;;5058543;28;20021;-80
2021/01/08 07:24:18;;;;;;;33.55;23.42;;;;;;;;;;5058646;28;20024;-80
2021/01/08 07:26:44;;;;;;;33.15;21.73;;;;;;;;;;5058450;28;20025;-80
2021/01/08 07:29:10;;;;;;;29.05;19.00;;;;;;;;;;5057210;28;20072;-81
2021/01/08 07:31:38;;;;;;;27.15;19.60;;;;;;;;;;5058210;28;20032;-81
2021/01/08 07:34:05;;;;;;;29.08;18.55;;;;;;;;;;5058304;28;20029;-81
2021/01/08 07:36:32;;;;;;;28.20;18.67;;;;;;;;;;5057141;28;20032;-80
2021/01/08 07:39:16;;;;;;;27.15;18.10;;;;;;;;;;5058070;28;20366;-79
2021/01/08 07:41:42;;;;;;;29.15;18.58;;;;;;;;;;5057972;28;20017;-81
2021/01/08 07:44:27;;;;;;;28.05;18.58;;;;;;;;;;5058083;28;20025;-80
2021/01/08 07:46:53;;;;;;;26.50;18.63;;;;;;;;;;5058176;28;20017;-80
2021/01/08 07:49:26;;;;;;;28.85;19.25;;;;;;;;;;5057970;28;20028;-81
2021/01/08 07:51:52;;;;;;;27.00;18.08;;;;;;;;;;5056880;28;20610;-80
2021/01/08 07:54:37;;;;;;;26.58;19.08;;;;;;;;;;5057763;28;20175;-79
2021/01/08 07:57:06;;;;;;;26.73;17.90;;;;;;;;;;5057686;28;20063;-80
2021/01/08 07:59:32;;;;;;;35.42;21.27;;;;;;;;;;5057758;28;20033;-79
2021/01/08 08:01:59;;;;;;;42.75;24.92;;;;;;;;;;5057552;28;20029;-79
2021/01/08 08:04:27;;;;;;;47.63;26.08;;;;;;;;;;5057715;28;20029;-79
2021/01/08 08:06:53;;;;;;;42.17;26.45;;;;;;;;;;5057832;28;20025;-80
2021/01/08 08:09:20;;;;;;;53.17;30.80;;;;;;;;;;5056511;28;20353;-81
2021/01/08 08:11:46;;;;;;;61.22;33.63;;;;;;;;;;5056463;28;20045;-80
2021/01/08 08:14:19;;;;;;;54.05;30.98;;;;;;;;;;5057389;28;20025;-80
2021/01/08 08:16:45;;;;;;;54.45;30.92;;;;;;;;;;5057562;28;20109;-79
2021/01/08 08:19:13;;;;;;;52.40;31.63;;;;;;;;;;5057007;28;20032;-79
2021/01/08 08:21:45;;;;;;;126.80;52.45;;;;;;;;;;5057385;28;20031;-80
2021/01/08 08:24:14;;;;;;;69.82;35.78;;;;;;;;;;5057533;28;20024;-81
2021/01/08 08:26:40;;;;;;;47.58;28.20;;;;;;;;;;5057652;28;20025;-80
2021/01/08 08:29:14;;;;;;;40.58;25.17;;;;;;;;;;5056365;28;20025;-80
2021/01/08 08:31:41;;;;;;;38.25;24.35;;;;;;;;;;5057101;28;20029;-79
2021/01/08 08:34:08;;;;;;;36.85;23.15;;;;;;;;;;5057383;28;20025;-80
2021/01/08 08:36:34;;;;;;;34.97;22.33;;;;;;;;;;5057193;28;20025;-80
2021/01/08 08:39:15;;;;;;;36.97;24.98;;;;;;;;;;5057070;28;20024;-81
2021/01/08 08:41:45;;;;;;;34.17;23.08;;;;;;;;;;5057370;28;20025;-80
2021/01/08 08:44:15;;;;;;;39.25;24.75;;;;;;;;;;5057097;28;20021;-80
2021/01/08 08:46:42;;;;;;;37.80;23.40;;;;;;;;;;5057130;28;20021;-80
2021/01/08 08:49:09;;;;;;;40.92;24.95;;;;;;;;;;5057120;28;20048;-81
2021/01/08 08:51:36;;;;;;;42.95;25.45;;;;;;;;;;5056953;28;20049;-81
2021/01/08 08:54:03;;;;;;;44.63;24.85;;;;;;;;;;5056975;28;20041;-81
2021/01/08 08:56:29;;;;;;;31.98;20.63;;;;;;;;;;5057023;28;20096;-81
2021/01/08 08:58:55;;;;;;;37.08;22.27;;;;;;;;;;5057024;28;20395;-81
2021/01/08 09:01:21;;;;;;;39.58;24.35;;;;;;;;;;5056016;28;20063;-81
2021/01/08 09:03:47;;;;;;;48.17;31.75;;;;;;;;;;5057027;28;20033;-80
2021/01/08 09:06:13;;;;;;;44.35;26.85;;;;;;;;;;5056811;28;20048;-79
2021/01/08 09:08:40;;;;;;;50.53;29.40;;;;;;;;;;5056904;28;20059;-80
2021/01/08 09:11:18;;;;;;;48.95;31.92;;;;;;;;;;5055607;28;20037;-78
2021/01/08 09:13:44;;;;;;;171.70;88.65;;;;;;;;;;5056636;28;20510;-79
2021/01/08 09:16:18;;;;;;;53.67;31.48;;;;;;;;;;5056709;28;20064;-79
2021/01/08 09:18:56;;;;;;;37.45;24.58;;;;;;;;;;5056747;28;20319;-79
2021/01/08 09:21:27;;;;;;;43.17;25.67;;;;;;;;;;5056642;28;20036;-79
2021/01/08 09:23:54;;;;;;;30.45;20.52;;;;;;;;;;5056788;28;20071;-80
2021/01/08 09:26:20;;;;;;;32.88;22.15;;;;;;;;;;5056687;28;20017;-80
2021/01/08 09:28:52;;;;;;;34.15;21.20;;;;;;;;;;5055836;28;20028;-80
2021/01/08 09:31:18;;;;;;;32.90;21.57;;;;;;;;;;5058362;28;20021;-80
2021/01/08 09:33:59;;;;;;;30.05;21.52;;;;;;;;;;5060520;28;20258;-80
2021/01/08 09:36:33;;;;;;;29.30;20.90;;;;;;;;;;5060549;28;20403;-81
2021/01/08 09:39:00;;;;;;;29.60;20.00;;;;;;;;;;5060491;28;20025;-81
2021/01/08 09:41:27;;;;;;;30.52;20.48;;;;;;;;;;5060375;28;20370;-80
2021/01/08 09:43:59;;;;;;;29.20;18.35;;;;;;;;;;5060346;28;20021;-82
2021/01/08 09:46:25;;;;;;;;;;;;;;;;;;5060977;28;20021;-81
2021/01/08 09:48:51;;;;;;;36.97;22.05;;;;;;;;;;5060403;28;19967;-81
2021/01/08 09:51:17;;;;;;;26.15;18.05;;;;;;;;;;5060061;28;20028;-81
2021/01/08 09:53:52;;;;;;;31.00;21.25;;;;;;;;;;5060218;28;20457;-83
2021/01/08 09:56:19;;;;;;;35.17;23.05;;;;;;;;;;5060105;28;20419;-81
2021/01/08 09:58:45;;;;;;;30.10;18.90;;;;;;;;;;5060106;28;20029;-81
2021/01/08 10:01:14;;;;;;;27.05;19.05;;;;;;;;;;5059985;28;20319;-79
2021/01/08 10:03:41;;;;;;;29.75;20.33;;;;;;;;;;5060243;28;20057;-78
2021/01/08 10:06:11;;;;;;;29.65;20.42;;;;;;;;;;5059888;28;20025;-79
2021/01/08 10:08:38;;;;;;;40.65;26.42;;;;;;;;;;5059894;28;20426;-79
2021/01/08 10:11:05;;;;;;;33.35;21.27;;;;;;;;;;5058581;28;20041;-78
2021/01/08 10:13:32;;;;;;;33.90;22.08;;;;;;;;;;5060215;28;20029;-79
2021/01/08 10:16:05;;;;;;;30.80;20.73;;;;;;;;;;5058695;28;20041;-79
2021/01/08 10:18:36;;;;;;;31.23;20.52;;;;;;;;;;5059730;28;20047;-79
2021/01/08 10:21:07;;;;;;;32.70;21.45;;;;;;;;;;5059849;28;20108;-77
2021/01/08 10:23:43;;;;;;;34.67;21.38;;;;;;;;;;5059429;28;20033;-76
2021/01/08 10:26:19;;;;;;;35.33;23.13;;;;;;;;;;5059502;28;20443;-79
2021/01/08 10:28:49;;;;;;;42.80;26.38;;;;;;;;;;5059766;28;20437;-77
2021/01/08 10:31:15;;;;;;;33.78;22.38;;;;;;;;;;5059364;28;20425;-77
2021/01/08 10:33:42;;;;;;;42.67;28.02;;;;;;;;;;5059546;28;20029;-77
2021/01/08 10:36:08;;;;;;;32.55;21.52;;;;;;;;;;5059510;28;20078;-78
2021/01/08 10:38:34;;;;;;;35.80;23.05;;;;;;;;;;5059483;28;20119;-77
2021/01/08 10:41:00;;;;;;;38.90;25.20;;;;;;;;;;5059141;28;20029;-76
2021/01/08 10:43:26;;;;;;;33.78;21.88;;;;;;;;;;5059039;28;20032;-76
2021/01/08 10:45:53;;;;;;;34.35;22.40;;;;;;;;;;5058027;28;20029;-76
2021/01/08 10:48:19;;;;;;;32.08;20.80;;;;;;;;;;5054446;28;20356;-76
2021/01/08 10:50:47;;;;;;;26.95;19.20;;;;;;;;;;5038914;28;20022;-76
2021/01/08 10:53:13;;;;;;;47.95;29.15;;;;;;;;;;5039036;28;20022;-77
2021/01/08 10:55:39;;;;;;;42.95;26.23;;;;;;;;;;5038844;28;20108;-77
2021/01/08 10:58:05;;;;;;;53.35;31.83;;;;;;;;;;5038993;28;20045;-77
2021/01/08 11:00:31;;;;;;;50.65;32.85;;;;;;;;;;5038971;28;20032;-76
2021/01/08 11:02:57;;;;;;;34.83;23.15;;;;;;;;;;5039216;28;20064;-77
2021/01/08 11:05:23;;;;;;;30.23;21.20;;;;;;;;;;5039163;28;20029;-77
2021/01/08 11:07:49;;;;;;;32.58;21.60;;;;;;;;;;5038540;28;20071;-76
2021/01/08 11:10:16;;;;;;;33.42;21.95;;;;;;;;;;5037610;28;20025;-76
2021/01/08 11:12:42;;;;;;;30.33;20.35;;;;;;;;;;5038642;28;20029;-77
2021/01/08 11:15:08;;;;;;;32.25;20.67;;;;;;;;;;5038362;28;20030;-76
2021/01/08 11:17:34;;;;;;;31.88;21.95;;;;;;;;;;5038527;28;20040;-77
2021/01/08 11:20:01;;;;;;;32.92;20.45;;;;;;;;;;5038592;28;20022;-78
2021/01/08 11:22:27;;;;;;;37.15;23.92;;;;;;;;;;5038188;28;20053;-77
2021/01/08 11:24:53;;;;;;;28.92;19.90;;;;;;;;;;5037336;28;20069;-77
2021/01/08 11:27:19;;;;;;;33.08;24.00;;;;;;;;;;5037250;28;20045;-77
2021/01/08 11:29:45;;;;;;;34.85;23.73;;;;;;;;;;5038582;28;20156;-77
2021/01/08 11:32:12;;;;;;;31.02;20.42;;;;;;;;;;5038456;28;20038;-77
2021/01/08 11:34:39;;;;;;;41.42;27.25;;;;;;;;;;5038584;28;20036;-77
2021/01/08 11:37:06;;;;;;;36.72;25.20;;;;;;;;;;5038453;28;20437;-77
2021/01/08 11:39:32;;;;;;;50.72;33.67;;;;;;;;;;5038166;28;20037;-76
2021/01/08 11:41:58;;;;;;;51.95;38.50;;;;;;;;;;5037006;28;20029;-77
2021/01/08 11:44:24;;;;;;;50.30;33.80;;;;;;;;;;5037763;28;20459;-77
2021/01/08 11:46:51;;;;;;;51.78;34.10;;;;;;;;;;5038152;28;20457;-76
2021/01/08 11:49:20;;;;;;;55.33;36.70;;;;;;;;;;5038225;28;20029;-77
2021/01/08 11:51:46;;;;;;;61.33;39.83;;;;;;;;;;5037296;28;20044;-76
2021/01/08 11:54:12;;;;;;;86.28;57.78;;;;;;;;;;5037251;28;20052;-77
2021/01/08 11:56:38;;;;;;;111.78;59.13;;;;;;;;;;5037668;28;20316;-77
2021/01/08 11:59:05;;;;;;;119.80;65.10;;;;;;;;;;5037996;28;20029;-77
2021/01/08 12:01:31;;;;;;;65.72;40.10;;;;;;;;;;5037595;28;20050;-77
2021/01/08 12:03:58;;;;;;;134.45;77.45;;;;;;;;;;5037787;28;20046;-77
2021/01/08 12:06:31;;;;;;;113.53;61.92;;;;;;;;;;5038032;28;20030;-78
2021/01/08 12:08:58;;;;;;;75.00;46.67;;;;;;;;;;5037745;28;20028;-78
2021/01/08 12:11:25;;;;;;;163.95;91.53;;;;;;;;;;5037430;28;20336;-78
2021/01/08 12:13:51;;;;;;;106.55;61.40;;;;;;;;;;5037742;28;20091;-77
2021/01/08 12:16:31;;;;;;;65.13;39.50;;;;;;;;;;5037723;28;20422;-80
2021/01/08 12:18:57;;;;;;;123.25;61.75;;;;;;;;;;5037420;28;20319;-77
2021/01/08 12:21:23;;;;;;;131.25;65.75;;;;;;;;;;5036341;28;20037;-78
2021/01/08 12:23:50;;;;;;;56.88;30.35;;;;;;;;;;5037251;28;20043;-77
2021/01/08 12:26:17;;;;;;;54.42;32.63;;;;;;;;;;5036281;28;20121;-77
2021/01/08 12:28:43;;;;;;;56.90;33.47;;;;;;;;;;5037269;28;20018;-77
2021/01/08 12:31:09;;;;;;;51.35;29.77;;;;;;;;;;5037291;28;20446;-77
2021/01/08 12:33:36;;;;;;;68.40;32.25;;;;;;;;;;5037341;28;20305;-77
2021/01/08 12:36:02;;;;;;;40.47;20.98;;;;;;;;;;5037192;28;20071;-77
2021/01/08 12:38:28;;;;;;;41.90;21.83;;;;;;;;;;5036925;28;20083;-77
2021/01/08 12:40:54;;;;;;;41.22;21.15;;;;;;;;;;5037069;28;20041;-75
2021/01/08 12:43:21;;;;;;;28.25;15.95;;;;;;;;;;5036974;28;20029;-75
2021/01/08 12:45:47;;;;;;;31.00;18.15;;;;;;;;;;5037268;28;20028;-75
2021/01/08 12:48:13;;;;;;;29.80;19.95;;;;;;;;;;5037312;28;20084;-76
2021/01/08 12:50:39;;;;;;;32.65;20.65;;;;;;;;;;5037031;28;20104;-76
2021/01/08 12:53:05;;;;;;;28.08;19.63;;;;;;;;;;5036179;28;20029;-75
2021/01/08 12:55:32;;;;;;;30.83;21.38;;;;;;;;;;5036912;28;20029;-75
2021/01/08 12:58:00;;;;;;;30.67;21.45;;;;;;;;;;5037240;28;20093;-75
2021/01/08 13:00:26;;;;;;;40.67;26.65;;;;;;;;;;5036945;28;20033;-75
2021/01/08 13:02:52;;;;;;;47.90;29.52;;;;;;;;;;5036985;28;20033;-75
2021/01/08 13:05:18;;;;;;;49.50;31.55;;;;;;;;;;5037837;28;20028;-75
2021/01/08 13:07:45;;;;;;;52.60;30.95;;;;;;;;;;5041223;28;20018;-75
2021/01/08 13:10:11;;;;;;;64.85;39.72;;;;;;;;;;5039995;28;20033;-75
2021/01/08 13:12:37;;;;;;;81.95;49.40;;;;;;;;;;5040240;28;20489;-75
2021/01/08 13:15:04;;;;;;;102.95;58.50;;;;;;;;;;5041189;28;20347;-75
2021/01/08 13:17:30;;;;;;;75.45;46.35;;;;;;;;;;5040900;28;20029;-75
2021/01/08 13:19:56;;;;;;;24.55;15.75;;;;;;;;;;5040821;28;20396;-75
2021/01/08 13:22:22;;;;;;;46.75;27.35;;;;;;;;;;5039824;28;20121;-75
2021/01/08 13:24:49;;;;;;;46.28;28.08;;;;;;;;;;5040637;28;20342;-75
2021/01/08 13:27:15;;;;;;;34.50;22.45;;;;;;;;;;5040883;28;20018;-75
2021/01/08 13:29:41;;;;;;;43.03;27.10;;;;;;;;;;5040675;28;20025;-75
2021/01/08 13:32:07;;;;;;;43.13;25.63;;;;;;;;;;5042062;28;20053;-74
2021/01/08 13:34:34;;;;;;;44.35;29.63;;;;;;;;;;5051242;28;20030;-75
2021/01/08 13:37:01;;;;;;;38.25;26.70;;;;;;;;;;5060203;28;20056;-74
2021/01/08 13:39:27;;;;;;;39.38;27.70;;;;;;;;;;5046720;28;20018;-75
2021/01/08 13:42:07;;;;;;;33.45;23.23;;;;;;;;;;5040329;28;20041;-75
2021/01/08 13:44:34;;;;;;;31.80;22.50;;;;;;;;;;5040170;28;20079;-75
2021/01/08 13:47:00;;;;;;;30.52;20.02;;;;;;;;;;5040455;28;20026;-75
2021/01/08 13:49:26;;;;;;;32.25;22.13;;;;;;;;;;5040611;28;20063;-75
2021/01/08 13:52:02;;;;;;;37.63;23.70;;;;;;;;;;5040228;28;20092;-76
2021/01/08 13:54:29;;;;;;;41.30;27.52;;;;;;;;;;5040242;28;20025;-75
2021/01/08 13:56:55;;;;;;;42.15;26.38;;;;;;;;;;5040167;28;20033;-75
2021/01/08 13:59:21;;;;;;;42.05;25.90;;;;;;;;;;5040306;28;20032;-75
2021/01/08 14:01:47;;;;;;;59.10;30.90;;;;;;;;;;5040039;28;20026;-75
2021/01/08 14:04:14;;;;;;;40.80;22.33;;;;;;;;;;5039996;28;20412;-75
2021/01/08 14:06:44;;;;;;;35.80;20.20;;;;;;;;;;5039738;28;20025;-75
2021/01/08 14:09:11;;;;;;;34.78;20.63;;;;;;;;;;5040003;28;20021;-75
2021/01/08 14:11:38;;;;;;;33.20;20.63;;;;;;;;;;5039732;28;20049;-75
2021/01/08 14:14:06;;;;;;;37.13;22.70;;;;;;;;;;5039993;28;20032;-75
2021/01/08 14:16:32;;;;;;;48.55;25.42;;;;;;;;;;5039125;28;20072;-75
2021/01/08 14:18:59;;;;;;;47.45;25.02;;;;;;;;;;5039820;28;20105;-75
2021/01/08 14:21:34;;;;;;;54.80;26.10;;;;;;;;;;5039700;28;20481;-75
2021/01/08 14:24:01;;;;;;;88.47;38.38;;;;;;;;;;5039591;28;20056;-75
2021/01/08 14:26:28;;;;;;;61.88;30.95;;;;;;;;;;5039751;28;20026;-75
2021/01/08 14:28:54;;;;;;;57.47;29.92;;;;;;;;;;5039809;28;20024;-75